Airport View

Enter AWOS ICAO identifier for current METAR.

ex. KFNL

KJHN 080540Z AUTO 15007KT 10SM CLR 21/15 A2994 RMK AO2 T02070150

8 Jul 2020 05:39

Frequency: 124.175

Phone: 620-492-2100

Other Area AWOS: KULS - K3K3 - KHQG - KEHA

TAF KGCK 072320Z 0800/0824 16016G26KT P6SM SKC FM080300 16010KT P6SM SCT200 FM081500 18020G30KT P6SM SCT080